createdAt,value
2023-04-09T23:00:59.897Z,1019.96
2023-04-09T23:01:30.508Z,1019.99
2023-04-09T23:02:01.292Z,1019.98
2023-04-09T23:02:31.875Z,1019.97
2023-04-09T23:03:02.743Z,1019.98
2023-04-09T23:03:33.537Z,1019.98
2023-04-09T23:04:04.112Z,1019.98
2023-04-09T23:04:34.681Z,1019.99
2023-04-09T23:05:05.491Z,1019.98
2023-04-09T23:05:36.059Z,1019.99
2023-04-09T23:06:06.527Z,1020.01
2023-04-09T23:06:37.512Z,1019.99
2023-04-09T23:07:08.525Z,1020.01
2023-04-09T23:07:38.995Z,1020.03
2023-04-09T23:08:10.109Z,1020.04
2023-04-09T23:08:40.943Z,1020.06
2023-04-09T23:09:11.514Z,1020.07
2023-04-09T23:09:42.551Z,1020.08
2023-04-09T23:10:13.075Z,1020.10
2023-04-09T23:10:44.052Z,1020.11
2023-04-09T23:11:15.202Z,1020.11
2023-04-09T23:11:45.714Z,1020.11
2023-04-09T23:12:16.736Z,1020.11
2023-04-09T23:12:47.212Z,1020.10
2023-04-09T23:13:18.177Z,1020.12
2023-04-09T23:13:48.732Z,1020.11
2023-04-09T23:14:19.475Z,1020.13
2023-04-09T23:14:49.999Z,1020.13
2023-04-09T23:15:20.503Z,1020.10
2023-04-09T23:15:51.452Z,1020.10
2023-04-09T23:16:22.502Z,1020.08
2023-04-09T23:16:52.970Z,1020.10
2023-04-09T23:17:24.277Z,1020.07
2023-04-09T23:17:54.926Z,1020.07
2023-04-09T23:18:25.403Z,1020.06
2023-04-09T23:18:56.576Z,1020.06
2023-04-09T23:19:27.256Z,1020.07
2023-04-09T23:19:58.195Z,1020.06
2023-04-09T23:20:29.441Z,1020.04
2023-04-09T23:20:59.977Z,1020.04
2023-04-09T23:21:30.419Z,1020.05
2023-04-09T23:22:01.585Z,1020.04
2023-04-09T23:22:32.115Z,1020.04
2023-04-09T23:23:02.576Z,1020.03
2023-04-09T23:23:33.798Z,1020.02
2023-04-09T23:24:04.309Z,1020.00
2023-04-09T23:24:35.251Z,1020.00
2023-04-09T23:25:06.197Z,1020.00
2023-04-09T23:25:37.158Z,1020.03
2023-04-09T23:26:08.240Z,1020.01
2023-04-09T23:26:38.933Z,1020.00
2023-04-09T23:27:09.431Z,1020.03
2023-04-09T23:27:40.456Z,1020.01
2023-04-09T23:28:10.912Z,1020.01
2023-04-09T23:28:41.879Z,1020.01
2023-04-09T23:29:12.850Z,1020.01
2023-04-09T23:29:44.000Z,1020.01
2023-04-09T23:30:14.531Z,1020.00
2023-04-09T23:30:45.050Z,1020.00
2023-04-09T23:31:15.592Z,1020.01
2023-04-09T23:31:46.205Z,1020.00
2023-04-09T23:32:16.766Z,1020.02
2023-04-09T23:32:47.528Z,1020.01
2023-04-09T23:33:18.061Z,1020.01
2023-04-09T23:33:48.510Z,1020.01
2023-04-09T23:34:19.470Z,1020.01
2023-04-09T23:34:50.427Z,1020.00
2023-04-09T23:35:21.406Z,1019.99
2023-04-09T23:35:52.615Z,1019.96
2023-04-09T23:36:23.128Z,1019.96
2023-04-09T23:36:54.160Z,1019.96
2023-04-09T23:37:24.584Z,1019.95
2023-04-09T23:37:55.597Z,1019.94
2023-04-09T23:38:26.071Z,1019.92
2023-04-09T23:38:57.208Z,1019.92
2023-04-09T23:39:27.710Z,1019.92
2023-04-09T23:39:58.662Z,1019.91
2023-04-09T23:40:29.688Z,1019.90
2023-04-09T23:41:00.166Z,1019.90
2023-04-09T23:41:31.115Z,1019.89
2023-04-09T23:42:02.348Z,1019.88
2023-04-09T23:42:32.952Z,1019.91
2023-04-09T23:43:03.566Z,1019.88
2023-04-09T23:43:34.040Z,1019.89
2023-04-09T23:44:05.153Z,1019.86
2023-04-09T23:44:35.700Z,1019.89
2023-04-09T23:45:06.371Z,1019.85
2023-04-09T23:45:36.913Z,1019.83
2023-04-09T23:46:07.346Z,1019.83
2023-04-09T23:46:38.460Z,1019.85
2023-04-09T23:47:09.362Z,1019.84
2023-04-09T23:47:39.849Z,1019.83
2023-04-09T23:48:11.132Z,1019.84
2023-04-09T23:48:41.810Z,1019.83
2023-04-09T23:49:12.268Z,1019.84
2023-04-09T23:49:43.310Z,1019.84
2023-04-09T23:50:13.789Z,1019.86
2023-04-09T23:50:44.330Z,1019.86
2023-04-09T23:51:15.092Z,1019.85
2023-04-09T23:51:45.596Z,1019.83
2023-04-09T23:52:16.564Z,1019.83
2023-04-09T23:52:47.665Z,1019.82
2023-04-09T23:53:18.293Z,1019.84
2023-04-09T23:53:48.801Z,1019.81
2023-04-09T23:54:19.946Z,1019.80
2023-04-09T23:54:50.493Z,1019.79
2023-04-09T23:55:20.927Z,1019.79
2023-04-09T23:55:51.873Z,1019.77
2023-04-09T23:56:22.848Z,1019.76
2023-04-09T23:56:53.829Z,1019.76
2023-04-09T23:57:25.072Z,1019.74
2023-04-09T23:57:55.620Z,1019.75
2023-04-09T23:58:26.128Z,1019.73
2023-04-09T23:58:56.566Z,1019.73
2023-04-09T23:59:27.601Z,1019.74
2023-04-09T23:59:58.061Z,1019.75
